createdAt,value
2018-07-28T00:00:41.565Z,76.300003
2018-07-28T00:05:43.945Z,75.199997
2018-07-28T00:10:46.136Z,73
2018-07-28T00:15:48.573Z,75.699997
2018-07-28T00:20:50.865Z,72.800003
2018-07-28T00:25:53.050Z,71.199997
2018-07-28T00:30:56.836Z,70.699997
2018-07-28T00:35:58.646Z,70.800003
2018-07-28T00:41:01.987Z,70.5
2018-07-28T00:46:02.395Z,80.5
2018-07-28T00:51:04.652Z,90.5
2018-07-28T00:56:07.001Z,95.900002
2018-07-28T01:01:09.103Z,99.900002
2018-07-28T01:06:11.520Z,99.900002
2018-07-28T01:11:13.729Z,99.900002
2018-07-28T01:21:18.743Z,99.900002
2018-07-28T01:26:21.208Z,99.900002
2018-07-28T01:36:37.815Z,99.900002
2018-07-28T01:46:42.179Z,99.900002
2018-07-28T01:51:44.838Z,99.900002
2018-07-28T01:56:46.723Z,99.900002
2018-07-28T02:01:49.120Z,99.900002
2018-07-28T02:06:51.381Z,99.900002
2018-07-28T02:11:53.730Z,99.900002
2018-07-28T02:16:56.011Z,99.900002
2018-07-28T02:21:58.274Z,99.900002
2018-07-28T02:27:00.523Z,99.900002
2018-07-28T02:32:02.822Z,99.900002
2018-07-28T02:37:05.167Z,99.900002
2018-07-28T02:42:07.430Z,99.900002
2018-07-28T02:47:09.798Z,99.900002
2018-07-28T02:52:12.002Z,99.900002
2018-07-28T02:57:14.390Z,99.900002
2018-07-28T03:02:16.479Z,99.900002
2018-07-28T03:07:18.822Z,99.900002
2018-07-28T03:12:21.188Z,99.900002
2018-07-28T03:17:23.669Z,99.900002
2018-07-28T03:22:25.801Z,99.900002
2018-07-28T03:27:28.156Z,99.900002
2018-07-28T03:32:30.414Z,99.900002
2018-07-28T03:37:32.666Z,99.900002
2018-07-28T03:42:36.145Z,99.900002
2018-07-28T03:47:37.230Z,99.900002
2018-07-28T03:52:39.547Z,99.900002
2018-07-28T03:57:41.831Z,99.900002
2018-07-28T04:02:44.211Z,99.900002
2018-07-28T04:07:46.477Z,99.900002
2018-07-28T04:12:48.647Z,99.900002
2018-07-28T04:17:50.952Z,99.900002
2018-07-28T04:22:53.375Z,99.900002
2018-07-28T04:27:55.752Z,99.900002
2018-07-28T04:32:57.899Z,99.900002
2018-07-28T04:38:00.215Z,99.900002
2018-07-28T04:43:02.445Z,99.900002
2018-07-28T04:48:04.913Z,99.900002
2018-07-28T04:53:07.071Z,99.900002
2018-07-28T04:58:09.385Z,99.900002
2018-07-28T05:03:11.784Z,99.900002
2018-07-28T05:08:14.041Z,99.900002
2018-07-28T05:13:16.237Z,99.900002
2018-07-28T05:18:18.518Z,99.900002
2018-07-28T05:23:20.865Z,99.900002
2018-07-28T05:28:23.252Z,99.900002
2018-07-28T05:33:25.488Z,99.900002
2018-07-28T05:38:27.701Z,99.900002
2018-07-28T05:43:30.115Z,99.900002
2018-07-28T05:48:32.446Z,99.900002
2018-07-28T05:53:34.681Z,99.900002
2018-07-28T05:58:36.857Z,99.900002
2018-07-28T06:03:39.363Z,99.900002
2018-07-28T06:08:41.575Z,99.900002
2018-07-28T06:13:43.876Z,99.900002
2018-07-28T06:18:46.075Z,99.900002
2018-07-28T06:23:48.383Z,99.900002
2018-07-28T06:28:50.605Z,99.900002
2018-07-28T06:33:53.051Z,99.900002
2018-07-28T06:38:55.186Z,99.900002
2018-07-28T06:43:57.610Z,99.900002
2018-07-28T06:48:59.884Z,99.900002
2018-07-28T06:54:02.181Z,99.900002
2018-07-28T06:59:04.504Z,99.900002
2018-07-28T07:04:06.689Z,99.900002
2018-07-28T07:09:09.184Z,99.900002
2018-07-28T07:14:11.395Z,99.900002
2018-07-28T07:19:15.150Z,99.900002
2018-07-28T07:24:15.836Z,99.900002
2018-07-28T07:29:18.200Z,99.900002
2018-07-28T07:34:21.636Z,99.900002
2018-07-28T07:39:22.828Z,99.300003
2018-07-28T07:44:25.169Z,98.199997
2018-07-28T07:49:27.584Z,98.300003
2018-07-28T07:54:29.687Z,94.800003
2018-07-28T07:59:32.017Z,95.199997
2018-07-28T08:04:34.219Z,87.099998
2018-07-28T08:09:36.631Z,87.900002
2018-07-28T08:14:38.879Z,83.099998
2018-07-28T08:19:41.263Z,83.400002
2018-07-28T08:24:43.512Z,82
2018-07-28T08:29:45.930Z,78.599998
2018-07-28T08:34:48.040Z,78.199997
2018-07-28T08:39:50.340Z,74.900002
2018-07-28T08:44:52.690Z,73.400002
2018-07-28T08:49:54.861Z,75.300003
2018-07-28T08:59:59.502Z,78
2018-07-28T09:05:01.971Z,76.699997
2018-07-28T09:10:04.193Z,77
2018-07-28T09:15:06.625Z,77.800003
2018-07-28T09:20:08.683Z,76.400002
2018-07-28T09:25:11.159Z,75.900002
2018-07-28T09:30:13.293Z,68.599998
2018-07-28T09:35:15.618Z,69.199997
2018-07-28T09:40:17.903Z,65.800003
2018-07-28T09:45:20.135Z,70.099998
2018-07-28T09:50:22.488Z,64
2018-07-28T09:55:24.692Z,67
2018-07-28T10:00:27.115Z,61.700001
2018-07-28T10:05:29.435Z,59
2018-07-28T10:10:31.586Z,61.799999
2018-07-28T10:15:33.940Z,59.5
2018-07-28T10:20:36.305Z,59.400002
2018-07-28T10:25:38.581Z,58.5
2018-07-28T10:30:40.776Z,55
2018-07-28T10:35:44.948Z,57
2018-07-28T10:40:46.339Z,55.5
2018-07-28T10:45:49.447Z,57.599998
2018-07-28T10:50:51.503Z,55.700001
2018-07-28T10:55:53.431Z,55.400002
2018-07-28T11:00:54.521Z,50.599998
2018-07-28T11:05:57.965Z,54.099998
2018-07-28T11:10:59.145Z,52.599998
2018-07-28T11:16:01.488Z,51.700001
2018-07-28T11:21:03.759Z,45.700001
2018-07-28T11:26:06.057Z,46.5
2018-07-28T11:31:08.482Z,49.5
2018-07-28T11:36:10.627Z,51
2018-07-28T11:41:13.073Z,48.5
2018-07-28T11:46:15.240Z,48.400002
2018-07-28T11:51:17.468Z,51.099998
2018-07-28T11:56:19.796Z,52.599998
2018-07-28T12:01:22.032Z,53.799999
2018-07-28T12:06:24.543Z,52.5
2018-07-28T12:11:26.739Z,52.400002
2018-07-28T12:16:30.331Z,48.700001
2018-07-28T12:21:31.416Z,43.5
2018-07-28T12:26:33.529Z,43.299999
2018-07-28T12:31:35.841Z,43.5
2018-07-28T12:36:38.120Z,42.5
2018-07-28T12:41:40.465Z,43.700001
2018-07-28T12:46:42.948Z,40
2018-07-28T12:51:45.025Z,40.700001
2018-07-28T12:56:47.348Z,41
2018-07-28T13:01:49.695Z,43.299999
2018-07-28T13:06:51.884Z,38.900002
2018-07-28T13:11:54.234Z,39.900002
2018-07-28T13:16:56.610Z,39.299999
2018-07-28T13:21:58.909Z,38.599998
2018-07-28T13:27:01.083Z,38
2018-07-28T13:32:03.579Z,38.799999
2018-07-28T13:37:05.719Z,39.900002
2018-07-28T13:42:08.956Z,37.200001
2018-07-28T13:47:10.314Z,37.599998
2018-07-28T13:52:12.550Z,41.900002
2018-07-28T13:57:15.138Z,37.200001
2018-07-28T14:02:17.233Z,39.700001
2018-07-28T14:07:19.456Z,37.400002
2018-07-28T14:12:21.855Z,39
2018-07-28T14:17:24.145Z,36.599998
2018-07-28T14:22:26.372Z,37.599998
2018-07-28T14:27:28.898Z,34.599998
2018-07-28T14:32:31.136Z,37.200001
2018-07-28T14:37:33.326Z,34.599998
2018-07-28T14:42:35.640Z,36.700001
2018-07-28T14:47:37.859Z,35.299999
2018-07-28T14:52:40.080Z,33.599998
2018-07-28T14:57:43.960Z,33.5
2018-07-28T15:08:09.537Z,31.6
2018-07-28T15:13:11.879Z,29.9
2018-07-28T15:18:14.219Z,30.200001
2018-07-28T15:23:16.423Z,29.1
2018-07-28T15:28:18.752Z,29.700001
2018-07-28T15:33:20.988Z,30.299999
2018-07-28T15:38:23.211Z,30.200001
2018-07-28T15:43:25.627Z,30.5
2018-07-28T15:48:27.900Z,29.4
2018-07-28T15:53:30.070Z,29.6
2018-07-28T15:58:32.550Z,29.799999
2018-07-28T16:03:34.772Z,28.700001
2018-07-28T16:08:37.018Z,27.700001
2018-07-28T16:13:39.321Z,28.799999
2018-07-28T16:18:41.643Z,27.5
2018-07-28T16:23:43.890Z,29.299999
2018-07-28T16:28:46.262Z,29.700001
2018-07-28T16:33:48.616Z,28.200001
2018-07-28T16:38:50.841Z,29.4
2018-07-28T16:43:53.089Z,28.200001
2018-07-28T16:48:55.409Z,28.4
2018-07-28T16:53:57.758Z,29.5
2018-07-28T16:58:59.991Z,29.1
2018-07-28T17:04:02.364Z,29.9
2018-07-28T17:09:04.612Z,30.200001
2018-07-28T17:14:07.027Z,30.299999
2018-07-28T17:19:09.186Z,31.799999
2018-07-28T17:24:11.529Z,32.400002
2018-07-28T17:29:13.768Z,32.5
2018-07-28T17:34:16.157Z,32.200001
2018-07-28T17:39:18.461Z,33.200001
2018-07-28T17:44:20.695Z,32.599998
2018-07-28T17:49:22.917Z,32.700001
2018-07-28T17:54:25.277Z,33.200001
2018-07-28T17:59:27.523Z,34.700001
2018-07-28T18:04:29.859Z,36.599998
2018-07-28T18:09:32.123Z,36.700001
2018-07-28T18:14:34.418Z,36.900002
2018-07-28T18:19:36.748Z,37.400002
2018-07-28T18:24:39.099Z,37.799999
2018-07-28T18:29:41.325Z,37.599998
2018-07-28T18:34:43.729Z,39.400002
2018-07-28T18:39:45.998Z,40.200001
2018-07-28T18:44:48.182Z,40.299999
2018-07-28T18:49:50.487Z,42.799999
2018-07-28T18:54:52.786Z,41.5
2018-07-28T18:59:55.061Z,41.599998
2018-07-28T19:04:57.356Z,41.5
2018-07-28T19:09:59.619Z,43.5
2018-07-28T19:15:01.997Z,44.200001
2018-07-28T19:20:04.264Z,51.299999
2018-07-28T19:25:06.577Z,50.900002
2018-07-28T19:30:08.785Z,54.400002
2018-07-28T19:35:11.215Z,48.299999
2018-07-28T19:40:13.532Z,50.5
2018-07-28T19:45:15.683Z,52.200001
2018-07-28T19:50:19.922Z,49.099998
2018-07-28T19:55:20.468Z,57.400002
2018-07-28T20:00:22.600Z,58.099998
2018-07-28T20:05:24.933Z,58.700001
2018-07-28T20:10:27.115Z,60.200001
2018-07-28T20:15:29.432Z,61.400002
2018-07-28T20:20:31.724Z,65.900002
2018-07-28T20:25:34.104Z,66.199997
2018-07-28T20:30:36.365Z,66.800003
2018-07-28T20:35:38.865Z,67.599998
2018-07-28T20:40:40.955Z,67.5
2018-07-28T20:45:43.364Z,68.800003
2018-07-28T20:50:45.628Z,70.5
2018-07-28T20:55:51.921Z,71.199997
2018-07-28T21:00:50.046Z,72.300003
2018-07-28T21:05:52.356Z,74.199997
2018-07-28T21:10:54.816Z,73.300003
2018-07-28T21:16:04.009Z,74.599998
2018-07-28T21:20:59.292Z,74.599998
2018-07-28T21:26:01.663Z,74.5
2018-07-28T21:31:03.897Z,74.699997
2018-07-28T21:36:07.489Z,75.5
2018-07-28T21:41:08.374Z,76.199997
2018-07-28T21:46:10.819Z,74.400002
2018-07-28T21:51:13.176Z,76.400002
2018-07-28T21:56:15.363Z,78.800003
2018-07-28T22:01:17.672Z,79.099998
2018-07-28T22:06:19.974Z,79.800003
2018-07-28T22:11:22.332Z,79.599998
2018-07-28T22:16:24.658Z,80.599998
2018-07-28T22:31:31.358Z,78.300003
2018-07-28T22:36:33.654Z,79
2018-07-28T22:41:36.002Z,78.300003
2018-07-28T22:46:38.215Z,78.300003
2018-07-28T22:51:40.657Z,79.800003
2018-07-28T22:56:42.877Z,80.400002
2018-07-28T23:01:45.146Z,80.5
2018-07-28T23:06:47.389Z,81.400002
2018-07-28T23:11:49.839Z,82.099998
2018-07-28T23:16:52.129Z,84.400002
2018-07-28T23:21:54.369Z,82.900002
2018-07-28T23:26:56.727Z,82.599998
2018-07-28T23:31:59.105Z,82.599998
2018-07-28T23:37:01.349Z,83
2018-07-28T23:42:03.593Z,82.5
2018-07-28T23:47:07.767Z,83.699997
2018-07-28T23:52:08.102Z,83.400002
2018-07-28T23:57:10.322Z,85.699997
